createdAt,value
2018-09-12T00:00:19.414Z,0
2018-09-12T00:01:29.256Z,0
2018-09-12T00:02:39.576Z,0
2018-09-12T00:03:49.149Z,0
2018-09-12T00:04:59.302Z,0
2018-09-12T00:06:08.873Z,0
2018-09-12T00:07:18.986Z,0
2018-09-12T00:08:28.561Z,0
2018-09-12T00:09:38.410Z,0
2018-09-12T00:10:48.527Z,0
2018-09-12T00:11:57.838Z,0
2018-09-12T00:13:07.688Z,0
2018-09-12T00:14:17.258Z,0
2018-09-12T00:15:26.848Z,0
2018-09-12T00:16:36.152Z,0
2018-09-12T00:17:45.726Z,0
2018-09-12T00:18:55.574Z,0
2018-09-12T00:20:05.468Z,0
2018-09-12T00:21:15.397Z,0
2018-09-12T00:22:25.330Z,0
2018-09-12T00:23:34.899Z,0
2018-09-12T00:24:45.012Z,0
2018-09-12T00:25:54.887Z,0
2018-09-12T00:27:04.466Z,0
2018-09-12T00:28:14.316Z,0
2018-09-12T00:29:23.886Z,0
2018-09-12T00:30:34.016Z,0
2018-09-12T00:31:44.131Z,0
2018-09-12T00:32:53.982Z,0
2018-09-12T00:34:03.588Z,0
2018-09-12T00:35:13.163Z,0
2018-09-12T00:36:23.012Z,0
2018-09-12T00:37:32.327Z,0
2018-09-12T00:38:42.452Z,0
2018-09-12T00:39:51.757Z,0
2018-09-12T00:41:01.902Z,0
2018-09-12T00:42:12.014Z,0
2018-09-12T00:43:21.586Z,0
2018-09-12T00:44:30.887Z,0
2018-09-12T00:45:40.462Z,0
2018-09-12T00:46:49.767Z,0
2018-09-12T00:47:59.615Z,0
2018-09-12T00:49:09.467Z,0
2018-09-12T00:50:19.613Z,0
2018-09-12T00:51:29.186Z,0
2018-09-12T00:52:39.029Z,0
2018-09-12T00:53:49.145Z,0
2018-09-12T00:54:59.263Z,0
2018-09-12T00:56:09.109Z,0
2018-09-12T00:57:18.963Z,0
2018-09-12T00:58:29.136Z,0
2018-09-12T00:59:38.442Z,0
2018-09-12T01:00:48.292Z,0
2018-09-12T01:01:58.139Z,0
2018-09-12T01:03:08.288Z,0
2018-09-12T01:04:17.858Z,0
2018-09-12T01:05:27.161Z,0
2018-09-12T01:06:37.270Z,0
2018-09-12T01:07:46.849Z,0
2018-09-12T01:08:56.696Z,0
2018-09-12T01:10:06.278Z,0
2018-09-12T01:11:16.391Z,0
2018-09-12T01:12:25.972Z,0
2018-09-12T01:13:35.818Z,0
2018-09-12T01:14:45.658Z,0
2018-09-12T01:15:55.228Z,0
2018-09-12T01:17:04.803Z,0
2018-09-12T01:18:14.916Z,0
2018-09-12T01:19:24.228Z,0
2018-09-12T01:20:34.096Z,0
2018-09-12T01:21:44.265Z,0
2018-09-12T01:22:54.103Z,0
2018-09-12T01:24:03.948Z,0
2018-09-12T01:25:13.257Z,0
2018-09-12T01:26:23.096Z,0
2018-09-12T01:27:32.938Z,0
2018-09-12T01:28:42.786Z,0
2018-09-12T01:29:52.102Z,0
2018-09-12T01:31:01.679Z,0
2018-09-12T01:32:11.532Z,0
2018-09-12T01:33:21.111Z,0
2018-09-12T01:34:30.994Z,0
2018-09-12T01:35:41.104Z,0
2018-09-12T01:36:50.949Z,0
2018-09-12T01:38:00.848Z,0
2018-09-12T01:39:10.773Z,0
2018-09-12T01:40:20.638Z,0
2018-09-12T01:41:30.491Z,0
2018-09-12T01:42:40.332Z,0
2018-09-12T01:43:50.208Z,0
2018-09-12T01:45:00.082Z,0
2018-09-12T01:46:09.382Z,0
2018-09-12T01:47:18.961Z,0
2018-09-12T01:48:28.537Z,0
2018-09-12T01:49:38.714Z,0
2018-09-12T01:50:48.831Z,0
2018-09-12T01:51:58.412Z,0
2018-09-12T01:53:07.441Z,0
2018-09-12T01:54:17.014Z,0
2018-09-12T01:55:26.054Z,0
2018-09-12T01:56:35.917Z,0
2018-09-12T01:57:45.762Z,0
2018-09-12T01:58:55.605Z,0
2018-09-12T02:00:04.909Z,0
2018-09-12T02:01:14.783Z,0
2018-09-12T02:02:24.635Z,0
2018-09-12T02:03:34.213Z,0
2018-09-12T02:04:43.788Z,0
2018-09-12T02:05:53.628Z,0
2018-09-12T02:07:03.200Z,0
2018-09-12T02:08:12.238Z,0
2018-09-12T02:09:22.361Z,0
2018-09-12T02:10:32.204Z,0
2018-09-12T02:11:42.049Z,0
2018-09-12T02:12:51.884Z,0
2018-09-12T02:14:01.735Z,0
2018-09-12T02:15:11.608Z,0
2018-09-12T02:16:21.179Z,0
2018-09-12T02:17:31.020Z,0
2018-09-12T02:18:40.859Z,0
2018-09-12T02:19:50.436Z,0
2018-09-12T02:21:00.285Z,0
2018-09-12T02:22:10.130Z,0
2018-09-12T02:23:19.973Z,0
2018-09-12T02:24:29.548Z,0
2018-09-12T02:25:39.393Z,0
2018-09-12T02:26:48.697Z,0
2018-09-12T02:27:58.549Z,0
2018-09-12T02:29:08.128Z,0
2018-09-12T02:30:17.707Z,0
2018-09-12T02:31:27.868Z,0
2018-09-12T02:32:37.178Z,0
2018-09-12T02:33:46.222Z,0
2018-09-12T02:34:56.062Z,0
2018-09-12T02:36:06.200Z,0
2018-09-12T02:37:15.508Z,0
2018-09-12T02:38:25.631Z,0
2018-09-12T02:39:35.503Z,0
2018-09-12T02:40:45.617Z,0
2018-09-12T02:41:55.473Z,0
2018-09-12T02:43:05.591Z,0
2018-09-12T02:44:15.741Z,0
2018-09-12T02:45:25.584Z,0
2018-09-12T02:46:35.440Z,0
2018-09-12T02:47:45.574Z,0
2018-09-12T02:48:55.158Z,0
2018-09-12T02:50:05.281Z,0
2018-09-12T02:51:14.856Z,0
2018-09-12T02:52:24.163Z,0
2018-09-12T02:53:33.763Z,0
2018-09-12T02:54:43.609Z,0
2018-09-12T02:55:53.182Z,0
2018-09-12T02:57:03.028Z,0
2018-09-12T02:58:12.866Z,0
2018-09-12T02:59:22.715Z,0
2018-09-12T03:00:32.827Z,0
2018-09-12T03:01:42.666Z,0
2018-09-12T03:02:52.784Z,0
2018-09-12T03:04:02.359Z,0
2018-09-12T03:05:12.198Z,0
2018-09-12T03:06:21.769Z,0
2018-09-12T03:07:31.074Z,0
2018-09-12T03:08:40.379Z,0
2018-09-12T03:09:50.504Z,0
2018-09-12T03:11:00.080Z,0
2018-09-12T03:12:09.704Z,0
2018-09-12T03:13:19.013Z,0
2018-09-12T03:14:28.855Z,0
2018-09-12T03:15:38.699Z,0
2018-09-12T03:16:48.610Z,0
2018-09-12T03:17:58.461Z,0
2018-09-12T03:19:08.315Z,0
2018-09-12T03:20:17.890Z,0
2018-09-12T03:21:28.017Z,0
2018-09-12T03:22:37.353Z,0
2018-09-12T03:23:46.930Z,0
2018-09-12T03:24:56.779Z,0
2018-09-12T03:26:06.357Z,0
2018-09-12T03:27:16.216Z,0
2018-09-12T03:28:25.522Z,0
2018-09-12T03:29:35.133Z,0
2018-09-12T03:30:44.719Z,0
2018-09-12T03:31:54.853Z,0
2018-09-12T03:33:04.434Z,0
2018-09-12T03:34:14.275Z,0
2018-09-12T03:35:24.383Z,0
2018-09-12T03:36:33.967Z,0
2018-09-12T03:37:44.086Z,0
2018-09-12T03:38:53.939Z,0
2018-09-12T03:40:03.786Z,0
2018-09-12T03:41:13.361Z,0
2018-09-12T03:42:23.206Z,0
2018-09-12T03:43:32.508Z,0
2018-09-12T03:44:42.239Z,0
2018-09-12T03:45:52.094Z,0
2018-09-12T03:47:01.718Z,0
2018-09-12T03:48:11.938Z,0
2018-09-12T03:49:21.420Z,0
2018-09-12T03:50:31.266Z,0
2018-09-12T03:51:40.847Z,0
2018-09-12T03:52:50.969Z,0
2018-09-12T03:54:01.104Z,0
2018-09-12T03:55:10.947Z,0
2018-09-12T03:56:20.254Z,0
2018-09-12T03:57:30.093Z,0
2018-09-12T03:58:40.204Z,0
2018-09-12T03:59:49.786Z,0
2018-09-12T04:00:59.645Z,0
2018-09-12T04:02:09.762Z,0
2018-09-12T04:03:19.064Z,0
2018-09-12T04:04:28.911Z,0
2018-09-12T04:05:39.022Z,0
2018-09-12T04:06:48.600Z,0
2018-09-12T04:07:58.446Z,0
2018-09-12T04:09:08.559Z,0
2018-09-12T04:10:18.410Z,0
2018-09-12T04:11:28.259Z,0
2018-09-12T04:12:38.383Z,0
2018-09-12T04:13:48.255Z,0
2018-09-12T04:14:57.829Z,0
2018-09-12T04:16:07.131Z,0
2018-09-12T04:17:17.000Z,0
2018-09-12T04:18:26.572Z,0
2018-09-12T04:19:36.154Z,0
2018-09-12T04:20:45.729Z,0
2018-09-12T04:21:55.589Z,0
2018-09-12T04:23:05.448Z,0
2018-09-12T04:24:15.861Z,0
2018-09-12T04:25:25.657Z,0
2018-09-12T04:26:34.970Z,0
2018-09-12T04:27:45.092Z,0
2018-09-12T04:28:54.396Z,0
2018-09-12T04:30:03.973Z,4
2018-09-12T04:31:13.551Z,4
2018-09-12T04:32:22.918Z,4
2018-09-12T04:33:32.764Z,4
2018-09-12T04:34:42.881Z,4
2018-09-12T04:35:52.463Z,4
2018-09-12T04:37:02.382Z,8
2018-09-12T04:38:12.230Z,4
2018-09-12T04:39:22.394Z,8
2018-09-12T04:40:32.508Z,8
2018-09-12T04:41:42.084Z,8
2018-09-12T04:42:52.381Z,12
2018-09-12T04:44:02.673Z,8
2018-09-12T04:45:12.843Z,8
2018-09-12T04:46:22.687Z,12
2018-09-12T04:47:32.271Z,16
2018-09-12T04:48:42.856Z,16
2018-09-12T04:49:52.985Z,20
2018-09-12T04:51:02.835Z,24
2018-09-12T04:52:12.689Z,24
2018-09-12T04:53:22.275Z,28
2018-09-12T04:54:31.851Z,32
2018-09-12T04:55:41.443Z,36
2018-09-12T04:56:51.282Z,36
2018-09-12T04:58:00.859Z,40
2018-09-12T04:59:10.711Z,36
2018-09-12T05:00:20.293Z,36
2018-09-12T05:01:30.150Z,44
2018-09-12T05:02:40.301Z,60
2018-09-12T05:03:50.440Z,88
2018-09-12T05:05:00.296Z,104
2018-09-12T05:06:10.420Z,112
2018-09-12T05:07:19.998Z,120
2018-09-12T05:08:29.895Z,124
2018-09-12T05:09:39.503Z,116
2018-09-12T05:10:49.623Z,116
2018-09-12T05:11:59.195Z,124
2018-09-12T05:13:09.102Z,124
2018-09-12T05:14:19.003Z,148
2018-09-12T05:15:29.131Z,176
2018-09-12T05:16:39.536Z,184
2018-09-12T05:17:48.898Z,184
2018-09-12T05:18:59.014Z,196
2018-09-12T05:20:08.647Z,196
2018-09-12T05:21:18.220Z,188
2018-09-12T05:22:28.067Z,228
2018-09-12T05:23:37.915Z,232
2018-09-12T05:24:47.752Z,200
2018-09-12T05:25:57.593Z,232
2018-09-12T05:27:07.741Z,296
2018-09-12T05:28:17.580Z,292
2018-09-12T05:29:27.732Z,388
2018-09-12T05:30:37.880Z,592
2018-09-12T05:31:47.460Z,476
2018-09-12T05:32:56.776Z,296
2018-09-12T05:34:06.623Z,400
2018-09-12T05:35:16.193Z,744
2018-09-12T05:36:25.812Z,492
2018-09-12T05:37:35.787Z,372
2018-09-12T05:38:45.362Z,608
2018-09-12T05:39:55.205Z,744
2018-09-12T05:41:04.506Z,492
2018-09-12T05:42:14.649Z,396
2018-09-12T05:43:24.274Z,544
2018-09-12T05:44:33.854Z,532
2018-09-12T05:45:43.188Z,320
2018-09-12T05:46:52.757Z,436
2018-09-12T05:48:02.608Z,688
2018-09-12T05:49:12.734Z,592
2018-09-12T05:50:22.987Z,468
2018-09-12T05:51:32.569Z,768
2018-09-12T05:52:42.112Z,740
2018-09-12T05:53:51.424Z,448
2018-09-12T05:55:00.998Z,468
2018-09-12T05:56:11.075Z,836
2018-09-12T05:57:20.922Z,956
2018-09-12T05:58:30.765Z,820
2018-09-12T05:59:41.143Z,1112
2018-09-12T06:00:50.983Z,1180
2018-09-12T06:02:00.564Z,808
2018-09-12T06:03:10.141Z,1036
2018-09-12T06:04:19.443Z,1224
2018-09-12T06:05:29.313Z,1088
2018-09-12T06:06:39.449Z,876
2018-09-12T06:07:49.703Z,860
2018-09-12T06:08:59.300Z,800
2018-09-12T06:10:08.878Z,744
2018-09-12T06:11:18.723Z,812
2018-09-12T06:12:28.576Z,796
2018-09-12T06:13:38.927Z,1016
2018-09-12T06:14:49.077Z,1116
2018-09-12T06:15:58.917Z,800
2018-09-12T06:17:09.038Z,904
2018-09-12T06:18:18.342Z,916
2018-09-12T06:19:28.173Z,668
2018-09-12T06:20:37.742Z,820
2018-09-12T06:21:47.319Z,1128
2018-09-12T06:22:56.893Z,1112
2018-09-12T06:24:06.467Z,828
2018-09-12T06:25:16.036Z,772
2018-09-12T06:26:25.613Z,848
2018-09-12T06:27:35.450Z,856
2018-09-12T06:28:44.779Z,936
2018-09-12T06:29:54.719Z,1068
2018-09-12T06:31:04.298Z,932
2018-09-12T06:32:14.412Z,884
2018-09-12T06:33:24.520Z,1152
2018-09-12T06:34:34.363Z,1120
2018-09-12T06:35:44.588Z,1048
2018-09-12T06:36:54.433Z,888
2018-09-12T06:38:04.272Z,904
2018-09-12T06:39:14.159Z,808
2018-09-12T06:40:23.506Z,724
2018-09-12T06:41:33.359Z,896
2018-09-12T06:42:43.204Z,1156
2018-09-12T06:43:53.077Z,920
2018-09-12T06:45:03.193Z,752
2018-09-12T06:46:12.764Z,848
2018-09-12T06:47:22.873Z,932
2018-09-12T06:48:32.708Z,1056
2018-09-12T06:49:42.548Z,1116
2018-09-12T06:50:52.116Z,1104
2018-09-12T06:52:01.957Z,1364
2018-09-12T06:53:12.081Z,1308
2018-09-12T06:54:21.387Z,1004
2018-09-12T06:55:30.688Z,1188
2018-09-12T06:56:40.256Z,1204
2018-09-12T06:57:49.825Z,1324
2018-09-12T06:58:59.131Z,1592
2018-09-12T07:00:08.713Z,2084
2018-09-12T07:01:18.308Z,2424
2018-09-12T07:02:27.920Z,2192
2018-09-12T07:03:37.499Z,2084
2018-09-12T07:04:47.349Z,2204
2018-09-12T07:05:56.954Z,2272
2018-09-12T07:07:06.829Z,2004
2018-09-12T07:08:16.705Z,2312
2018-09-12T07:09:25.740Z,2448
2018-09-12T07:10:35.314Z,2032
2018-09-12T07:11:44.889Z,2408
2018-09-12T07:12:55.003Z,3228
2018-09-12T07:14:04.687Z,3368
2018-09-12T07:15:14.967Z,3132
2018-09-12T07:16:24.576Z,2924
2018-09-12T07:17:33.881Z,2828
2018-09-12T07:18:43.179Z,3136
2018-09-12T07:19:53.027Z,3428
2018-09-12T07:21:02.612Z,3004
2018-09-12T07:22:11.969Z,2704
2018-09-12T07:23:21.808Z,3132
2018-09-12T07:24:32.227Z,3728
2018-09-12T07:25:42.786Z,4380
2018-09-12T07:26:52.632Z,5148
2018-09-12T07:28:02.470Z,4076
2018-09-12T07:29:12.339Z,3340
2018-09-12T07:30:21.978Z,2988
2018-09-12T07:31:31.925Z,3076
2018-09-12T07:32:42.051Z,3144
2018-09-12T07:33:52.158Z,2628
2018-09-12T07:35:02.007Z,2556
2018-09-12T07:36:12.131Z,3168
2018-09-12T07:37:21.725Z,3724
2018-09-12T07:38:31.834Z,3328
2018-09-12T07:39:41.669Z,3680
2018-09-12T07:40:51.247Z,4416
2018-09-12T07:42:01.084Z,3180
2018-09-12T07:43:10.650Z,2820
2018-09-12T07:44:20.775Z,2984
2018-09-12T07:45:30.072Z,2648
2018-09-12T07:46:39.646Z,2700
2018-09-12T07:47:49.482Z,3416
2018-09-12T07:48:59.472Z,3284
2018-09-12T07:50:09.738Z,3040
2018-09-12T07:51:19.308Z,3168
2018-09-12T07:52:29.150Z,3700
2018-09-12T07:53:38.723Z,4036
2018-09-12T07:54:48.853Z,4760
2018-09-12T07:55:58.861Z,4620
2018-09-12T07:57:08.515Z,3556
2018-09-12T07:58:18.356Z,3172
2018-09-12T07:59:28.195Z,2960
2018-09-12T08:00:38.808Z,2584
2018-09-12T08:01:48.968Z,2808
2018-09-12T08:02:58.278Z,3228
2018-09-12T08:04:07.855Z,3392
2018-09-12T08:05:18.539Z,4380
2018-09-12T08:06:28.116Z,4368
2018-09-12T08:07:37.957Z,2988
2018-09-12T08:08:47.527Z,2712
2018-09-12T08:09:57.654Z,2920
2018-09-12T08:11:07.224Z,4544
2018-09-12T08:12:17.778Z,5112
2018-09-12T08:13:27.575Z,4788
2018-09-12T08:14:37.453Z,3360
2018-09-12T08:15:47.316Z,2864
2018-09-12T08:16:57.686Z,3016
2018-09-12T08:18:07.423Z,3484
2018-09-12T08:19:17.467Z,4708
2018-09-12T08:20:27.319Z,4364
2018-09-12T08:21:37.161Z,3896
2018-09-12T08:22:46.461Z,3476
2018-09-12T08:23:56.309Z,2800
2018-09-12T08:25:06.155Z,3512
2018-09-12T08:26:16.078Z,3176
2018-09-12T08:27:26.161Z,3736
2018-09-12T08:28:35.733Z,3880
2018-09-12T08:29:45.580Z,4480
2018-09-12T08:30:55.186Z,5256
2018-09-12T08:32:04.487Z,4044
2018-09-12T08:33:14.420Z,3996
2018-09-12T08:34:24.639Z,3248
2018-09-12T08:35:33.937Z,3360
2018-09-12T08:36:43.781Z,3544
2018-09-12T08:37:53.632Z,3544
2018-09-12T08:39:03.469Z,3692
2018-09-12T08:40:13.046Z,4620
2018-09-12T08:41:23.161Z,4488
2018-09-12T08:42:33.661Z,4992
2018-09-12T08:43:43.652Z,5532
2018-09-12T08:44:53.768Z,6120
2018-09-12T08:46:03.337Z,6072
2018-09-12T08:47:13.180Z,5784
2018-09-12T08:48:22.758Z,5524
2018-09-12T08:49:32.327Z,5780
2018-09-12T08:50:41.899Z,5868
2018-09-12T08:51:51.740Z,6096
2018-09-12T08:53:01.639Z,6184
2018-09-12T08:54:12.018Z,6040
2018-09-12T08:55:21.868Z,5968
2018-09-12T08:56:31.172Z,5988
2018-09-12T08:57:40.746Z,6048
2018-09-12T08:58:50.892Z,6248
2018-09-12T09:00:01.025Z,6408
2018-09-12T09:01:11.161Z,6888
2018-09-12T09:02:20.773Z,7084
2018-09-12T09:03:30.891Z,7144
2018-09-12T09:04:40.459Z,6744
2018-09-12T09:05:50.725Z,6612
2018-09-12T09:07:00.026Z,6412
2018-09-12T09:08:09.325Z,5956
2018-09-12T09:09:18.896Z,5852
2018-09-12T09:10:28.552Z,5924
2018-09-12T09:11:38.483Z,5720
2018-09-12T09:12:48.355Z,5728
2018-09-12T09:13:58.471Z,5972
2018-09-12T09:15:08.315Z,5808
2018-09-12T09:16:17.888Z,6620
2018-09-12T09:17:27.643Z,6008
2018-09-12T09:18:37.267Z,5524
2018-09-12T09:19:47.123Z,5376
2018-09-12T09:20:56.963Z,5144
2018-09-12T09:22:06.266Z,4500
2018-09-12T09:23:15.987Z,5732
2018-09-12T09:24:25.579Z,7380
2018-09-12T09:25:35.422Z,8520
2018-09-12T09:26:45.536Z,11596
2018-09-12T09:27:55.111Z,12480
2018-09-12T09:29:04.686Z,9940
2018-09-12T09:30:14.533Z,10240
2018-09-12T09:31:24.113Z,11084
2018-09-12T09:32:33.486Z,14788
2018-09-12T09:33:43.701Z,12928
2018-09-12T09:34:54.137Z,10056
2018-09-12T09:36:04.133Z,9128
2018-09-12T09:37:13.719Z,9888
2018-09-12T09:38:23.295Z,9336
2018-09-12T09:39:33.138Z,8120
2018-09-12T09:40:43.256Z,7592
2018-09-12T09:41:53.373Z,7976
2018-09-12T09:43:03.612Z,6028
2018-09-12T09:44:13.975Z,4536
2018-09-12T09:45:23.834Z,4312
2018-09-12T09:46:34.039Z,6652
2018-09-12T09:47:44.243Z,9340
2018-09-12T09:48:54.139Z,10720
2018-09-12T09:50:04.002Z,9868
2018-09-12T09:51:13.300Z,9064
2018-09-12T09:52:23.292Z,9628
2018-09-12T09:53:32.909Z,10200
2018-09-12T09:54:43.372Z,7852
2018-09-12T09:55:53.471Z,7124
2018-09-12T09:57:02.775Z,6324
2018-09-12T09:58:12.618Z,5712
2018-09-12T09:59:22.732Z,4656
2018-09-12T10:00:33.015Z,4288
2018-09-12T10:01:42.865Z,4320
2018-09-12T10:02:52.703Z,3872
2018-09-12T10:04:02.273Z,3900
2018-09-12T10:05:12.113Z,3616
2018-09-12T10:06:21.957Z,3956
2018-09-12T10:07:31.263Z,4212
2018-09-12T10:08:41.101Z,3384
2018-09-12T10:09:51.420Z,2660
2018-09-12T10:11:01.259Z,2656
2018-09-12T10:12:10.835Z,2548
2018-09-12T10:13:20.687Z,2640
2018-09-12T10:14:30.295Z,3064
2018-09-12T10:15:40.148Z,3212
2018-09-12T10:16:49.994Z,3184
2018-09-12T10:17:59.561Z,3964
2018-09-12T10:19:09.411Z,4872
2018-09-12T10:20:19.533Z,6044
2018-09-12T10:21:29.168Z,6632
2018-09-12T10:22:38.735Z,6932
2018-09-12T10:23:48.841Z,8204
2018-09-12T10:24:58.141Z,9068
2018-09-12T10:26:07.459Z,8188
2018-09-12T10:27:17.301Z,8704
2018-09-12T10:28:26.874Z,7452
2018-09-12T10:29:37.034Z,7460
2018-09-12T10:30:46.878Z,7360
2018-09-12T10:31:56.720Z,7520
2018-09-12T10:33:06.574Z,5360
2018-09-12T10:34:16.691Z,6292
2018-09-12T10:35:26.549Z,6104
2018-09-12T10:36:36.396Z,5120
2018-09-12T10:37:45.969Z,5344
2018-09-12T10:38:55.552Z,5688
2018-09-12T10:40:05.123Z,6912
2018-09-12T10:41:15.152Z,7624
2018-09-12T10:42:24.995Z,6748
2018-09-12T10:43:34.832Z,7400
2018-09-12T10:44:44.684Z,7892
2018-09-12T10:45:53.991Z,7672
2018-09-12T10:47:03.876Z,7120
2018-09-12T10:48:13.996Z,7976
2018-09-12T10:49:23.887Z,8228
2018-09-12T10:50:33.733Z,7772
2018-09-12T10:51:43.027Z,6776
2018-09-12T10:52:52.330Z,6244
2018-09-12T10:54:02.446Z,5932
2018-09-12T10:55:12.572Z,6284
2018-09-12T10:56:22.409Z,6880
2018-09-12T10:57:32.527Z,6268
2018-09-12T10:58:42.375Z,6216
2018-09-12T10:59:52.219Z,5996
2018-09-12T11:01:01.536Z,4848
2018-09-12T11:02:11.132Z,5224
2018-09-12T11:03:20.966Z,6200
2018-09-12T11:04:31.315Z,6912
2018-09-12T11:05:41.439Z,7172
2018-09-12T11:06:51.334Z,6208
2018-09-12T11:08:01.479Z,5304
2018-09-12T11:09:11.319Z,5456
2018-09-12T11:10:21.428Z,5764
2018-09-12T11:11:31.545Z,5476
2018-09-12T11:12:41.661Z,4920
2018-09-12T11:13:51.821Z,4396
2018-09-12T11:15:01.121Z,3776
2018-09-12T11:16:10.961Z,3200
2018-09-12T11:17:21.072Z,2940
2018-09-12T11:18:31.208Z,2632
2018-09-12T11:19:41.360Z,2516
2018-09-12T11:20:50.941Z,2752
2018-09-12T11:22:00.792Z,3180
2018-09-12T11:23:10.639Z,3080
2018-09-12T11:24:20.489Z,3528
2018-09-12T11:25:30.056Z,4912
2018-09-12T11:26:39.626Z,7008
2018-09-12T11:27:49.485Z,8420
2018-09-12T11:28:59.320Z,7428
2018-09-12T11:30:08.899Z,5844
2018-09-12T11:31:18.750Z,5196
2018-09-12T11:32:28.868Z,5116
2018-09-12T11:33:38.716Z,5672
2018-09-12T11:34:48.557Z,6196
2018-09-12T11:35:58.410Z,6992
2018-09-12T11:37:08.690Z,7796
2018-09-12T11:38:17.719Z,7868
2018-09-12T11:39:27.560Z,6944
2018-09-12T11:40:37.690Z,7052
2018-09-12T11:41:47.539Z,7116
2018-09-12T11:42:57.383Z,7000
2018-09-12T11:44:07.258Z,6272
2018-09-12T11:45:17.102Z,5320
2018-09-12T11:46:26.939Z,4972
2018-09-12T11:47:36.788Z,5008
2018-09-12T11:48:46.901Z,4916
2018-09-12T11:49:56.746Z,4124
2018-09-12T11:51:06.318Z,3812
2018-09-12T11:52:16.441Z,3080
2018-09-12T11:53:25.776Z,2892
2018-09-12T11:54:35.885Z,2908
2018-09-12T11:55:45.640Z,3064
2018-09-12T11:56:55.485Z,3888
2018-09-12T11:58:05.061Z,4728
2018-09-12T11:59:14.091Z,5044
2018-09-12T12:00:24.141Z,4924
2018-09-12T12:01:33.984Z,5160
2018-09-12T12:02:43.829Z,5876
2018-09-12T12:03:53.690Z,6076
2018-09-12T12:05:03.537Z,5356
2018-09-12T12:06:14.043Z,5748
2018-09-12T12:07:23.907Z,5480
2018-09-12T12:08:33.479Z,5532
2018-09-12T12:09:43.319Z,6016
2018-09-12T12:10:53.174Z,6560
2018-09-12T12:12:03.284Z,7084
2018-09-12T12:13:13.125Z,7112
2018-09-12T12:14:22.976Z,6424
2018-09-12T12:15:32.658Z,7584
2018-09-12T12:16:42.393Z,9020
2018-09-12T12:17:52.089Z,10040
2018-09-12T12:19:01.966Z,11280
2018-09-12T12:20:11.018Z,12756
2018-09-12T12:21:20.864Z,13284
2018-09-12T12:22:30.435Z,12936
2018-09-12T12:23:40.205Z,12136
2018-09-12T12:24:49.785Z,10360
2018-09-12T12:25:59.918Z,9588
2018-09-12T12:27:09.224Z,8948
2018-09-12T12:28:18.803Z,7172
2018-09-12T12:29:28.832Z,5864
2018-09-12T12:30:38.673Z,4264
2018-09-12T12:31:48.518Z,3456
2018-09-12T12:32:58.095Z,2980
2018-09-12T12:34:07.671Z,3096
2018-09-12T12:35:17.352Z,3688
2018-09-12T12:36:26.986Z,4936
2018-09-12T12:37:36.561Z,4928
2018-09-12T12:38:46.409Z,3872
2018-09-12T12:39:55.994Z,3828
2018-09-12T12:41:05.620Z,4956
2018-09-12T12:42:15.772Z,6320
2018-09-12T12:43:25.066Z,7452
2018-09-12T12:44:34.637Z,7760
2018-09-12T12:45:44.746Z,8624
2018-09-12T12:46:53.778Z,11788
2018-09-12T12:48:03.634Z,12408
2018-09-12T12:49:13.493Z,12060
2018-09-12T12:50:23.343Z,13284
2018-09-12T12:51:33.228Z,13572
2018-09-12T12:52:43.072Z,13572
2018-09-12T12:53:52.913Z,11576
2018-09-12T12:55:02.753Z,11656
2018-09-12T12:56:12.889Z,12416
2018-09-12T12:57:22.459Z,11652
2018-09-12T12:58:32.028Z,11744
2018-09-12T12:59:41.608Z,11492
2018-09-12T13:00:51.238Z,11356
2018-09-12T13:02:01.084Z,11316
2018-09-12T13:03:10.924Z,11236
2018-09-12T13:04:21.050Z,12036
2018-09-12T13:05:31.313Z,13004
2018-09-12T13:06:41.186Z,13260
2018-09-12T13:07:51.062Z,12524
2018-09-12T13:09:00.635Z,12616
2018-09-12T13:10:10.752Z,12172
2018-09-12T13:11:20.330Z,12088
2018-09-12T13:12:29.897Z,12136
2018-09-12T13:13:39.474Z,12200
2018-09-12T13:14:49.593Z,12144
2018-09-12T13:15:59.733Z,12108
2018-09-12T13:17:09.038Z,13044
2018-09-12T13:18:18.607Z,12456
2018-09-12T13:19:28.755Z,11180
2018-09-12T13:20:38.601Z,10688
2018-09-12T13:21:49.738Z,11260
2018-09-12T13:22:59.280Z,8688
2018-09-12T13:24:08.894Z,9016
2018-09-12T13:25:18.748Z,8556
2018-09-12T13:26:28.324Z,6184
2018-09-12T13:27:38.030Z,4628
2018-09-12T13:28:47.290Z,4568
2018-09-12T13:29:57.159Z,3884
2018-09-12T13:31:06.529Z,3568
2018-09-12T13:32:15.570Z,3308
2018-09-12T13:33:25.235Z,3260
2018-09-12T13:34:34.966Z,2768
2018-09-12T13:35:45.209Z,2656
2018-09-12T13:36:55.164Z,2820
2018-09-12T13:38:05.383Z,3280
2018-09-12T13:39:15.264Z,3300
2018-09-12T13:40:24.886Z,2892
2018-09-12T13:41:34.471Z,2924
2018-09-12T13:42:44.047Z,3384
2018-09-12T13:43:53.916Z,3416
2018-09-12T13:45:03.806Z,3316
2018-09-12T13:46:13.666Z,3264
2018-09-12T13:47:22.710Z,3712
2018-09-12T13:48:32.834Z,4260
2018-09-12T13:49:42.149Z,5332
2018-09-12T13:50:52.266Z,6696
2018-09-12T13:52:02.126Z,8464
2018-09-12T13:53:11.457Z,10436
2018-09-12T13:54:20.774Z,11748
2018-09-12T13:55:30.932Z,12836
2018-09-12T13:56:41.536Z,11964
2018-09-12T13:57:51.670Z,10808
2018-09-12T13:59:00.983Z,9784
2018-09-12T14:00:10.860Z,8752
2018-09-12T14:01:19.898Z,7392
2018-09-12T14:02:29.207Z,7968
2018-09-12T14:03:38.248Z,8632
2018-09-12T14:04:48.371Z,8012
2018-09-12T14:05:57.410Z,7448
2018-09-12T14:07:06.990Z,6812
2018-09-12T14:08:17.105Z,6116
2018-09-12T14:09:26.985Z,4960
2018-09-12T14:10:37.249Z,5572
2018-09-12T14:11:46.823Z,4884
2018-09-12T14:12:56.666Z,4064
2018-09-12T14:14:06.815Z,3360
2018-09-12T14:15:16.388Z,2532
2018-09-12T14:16:26.277Z,1992
2018-09-12T14:17:35.845Z,1876
2018-09-12T14:18:45.954Z,2044
2018-09-12T14:19:56.064Z,2444
2018-09-12T14:21:05.639Z,2916
2018-09-12T14:22:15.209Z,3464
2018-09-12T14:23:24.800Z,3664
2018-09-12T14:24:34.374Z,3964
2018-09-12T14:25:44.225Z,3772
2018-09-12T14:26:53.800Z,3672
2018-09-12T14:28:03.961Z,3408
2018-09-12T14:29:13.265Z,3608
2018-09-12T14:30:22.838Z,4012
2018-09-12T14:31:32.133Z,4300
2018-09-12T14:32:41.978Z,4708
2018-09-12T14:33:51.314Z,5224
2018-09-12T14:35:00.893Z,5484
2018-09-12T14:36:10.741Z,5584
2018-09-12T14:37:20.579Z,6336
2018-09-12T14:38:30.160Z,6160
2018-09-12T14:39:40.718Z,5868
2018-09-12T14:40:50.830Z,6876
2018-09-12T14:42:00.833Z,7672
2018-09-12T14:43:10.506Z,6548
2018-09-12T14:44:20.350Z,6412
2018-09-12T14:45:29.926Z,6704
2018-09-12T14:46:39.766Z,6400
2018-09-12T14:47:49.338Z,5576
2018-09-12T14:48:58.909Z,4944
2018-09-12T14:50:08.759Z,4232
2018-09-12T14:51:18.878Z,4452
2018-09-12T14:52:28.726Z,4720
2018-09-12T14:53:38.843Z,4440
2018-09-12T14:54:48.957Z,3668
2018-09-12T14:55:58.803Z,3324
2018-09-12T14:57:08.383Z,3832
2018-09-12T14:58:18.233Z,4480
2018-09-12T14:59:27.805Z,5032
2018-09-12T15:00:37.387Z,5644
2018-09-12T15:01:46.970Z,5620
2018-09-12T15:02:56.805Z,5408
2018-09-12T15:04:06.917Z,5352
2018-09-12T15:05:16.493Z,5068
2018-09-12T15:06:26.609Z,4652
2018-09-12T15:07:36.180Z,4780
2018-09-12T15:08:45.749Z,5432
2018-09-12T15:09:55.597Z,6348
2018-09-12T15:11:05.217Z,6360
2018-09-12T15:12:14.791Z,6028
2018-09-12T15:13:24.956Z,5620
2018-09-12T15:14:34.811Z,5540
2018-09-12T15:15:44.615Z,5148
2018-09-12T15:16:53.916Z,4740
2018-09-12T15:18:03.490Z,4600
2018-09-12T15:19:13.332Z,4356
2018-09-12T15:20:23.214Z,3512
2018-09-12T15:21:32.284Z,3320
2018-09-12T15:22:42.425Z,3252
2018-09-12T15:23:52.000Z,3472
2018-09-12T15:25:02.107Z,3708
2018-09-12T15:26:11.424Z,3784
2018-09-12T15:27:21.493Z,3908
2018-09-12T15:28:31.631Z,3656
2018-09-12T15:29:41.267Z,3556
2018-09-12T15:30:51.111Z,3548
2018-09-12T15:32:00.959Z,3456
2018-09-12T15:33:10.814Z,3424
2018-09-12T15:34:20.396Z,3600
2018-09-12T15:35:30.260Z,3944
2018-09-12T15:36:39.567Z,4236
2018-09-12T15:37:49.139Z,4444
2018-09-12T15:38:58.986Z,4548
2018-09-12T15:40:08.836Z,4316
2018-09-12T15:41:18.752Z,3832
2018-09-12T15:42:28.455Z,3428
2018-09-12T15:43:38.587Z,3380
2018-09-12T15:44:48.698Z,3444
2018-09-12T15:45:58.552Z,3500
2018-09-12T15:47:08.703Z,3356
2018-09-12T15:48:19.092Z,3292
2018-09-12T15:49:28.674Z,3140
2018-09-12T15:50:38.803Z,2788
2018-09-12T15:51:48.381Z,2816
2018-09-12T15:52:58.302Z,3008
2018-09-12T15:54:07.621Z,3060
2018-09-12T15:55:17.741Z,2908
2018-09-12T15:56:27.857Z,2740
2018-09-12T15:57:37.702Z,2608
2018-09-12T15:58:47.036Z,2496